Time,TemperatureF,DewpointF,PressureIn,WindDirection,WindDirectionDegrees,WindSpeedMPH,WindSpeedGustMPH,Humidity,HourlyPrecipIn,Conditions,Clouds,dailyrainin,SoftwareType,DateUTC
2013-04-22 00:04:00,62.4,28.0,24.95,WSW,247,4.0,-999.0,27,-99.99,,,-99.99,dwt +perl,2013-04-22 07:04:00,
2013-04-22 00:09:00,62.4,28.0,24.95,WSW,242,8.0,-999.0,27,-99.99,,,-99.99,dwt +perl,2013-04-22 07:09:00,
2013-04-22 00:14:00,62.3,27.0,24.95,WSW,242,7.0,-999.0,26,-99.99,,,-99.99,dwt +perl,2013-04-22 07:14:00,
2013-04-22 00:19:00,62.2,26.9,24.95,WSW,241,8.0,-999.0,26,-99.99,,,-99.99,dwt +perl,2013-04-22 07:19:00,
2013-04-22 00:24:00,62.2,26.9,24.95,WSW,239,9.0,-999.0,26,-99.99,,,-99.99,dwt +perl,2013-04-22 07:24:00,
2013-04-22 00:29:00,62.2,26.9,24.95,WSW,239,9.0,-999.0,26,-99.99,,,-99.99,dwt +perl,2013-04-22 07:29:00,
2013-04-22 00:34:00,62.2,26.9,24.95,WSW,237,8.0,-999.0,26,-99.99,,,-99.99,dwt +perl,2013-04-22 07:34:00,
2013-04-22 00:39:00,62.2,27.8,24.95,SW,234,8.0,-999.0,27,-99.99,,,-99.99,dwt +perl,2013-04-22 07:39:00,
2013-04-22 00:44:00,62.1,27.7,24.95,WSW,237,6.0,-999.0,27,-99.99,,,-99.99,dwt +perl,2013-04-22 07:44:00,
2013-04-22 00:49:00,62.1,27.7,24.95,WSW,241,7.0,-999.0,27,-99.99,,,-99.99,dwt +perl,2013-04-22 07:49:00,
2013-04-22 00:54:00,62.0,27.6,24.95,WSW,238,7.0,-999.0,27,-99.99,,,-99.99,dwt +perl,2013-04-22 07:54:00,
2013-04-22 00:59:00,62.0,27.6,24.95,WSW,238,7.0,-999.0,27,-99.99,,,-99.99,dwt +perl,2013-04-22 07:59:00,
2013-04-22 01:04:00,61.9,27.5,24.95,WSW,238,6.0,-999.0,27,-99.99,,,-99.99,dwt +perl,2013-04-22 08:04:00,
2013-04-22 01:09:00,62.0,27.6,24.95,WSW,238,7.0,-999.0,27,-99.99,,,-99.99,dwt +perl,2013-04-22 08:09:00,
2013-04-22 01:14:00,62.0,27.6,24.95,WSW,238,6.0,-999.0,27,-99.99,,,-99.99,dwt +perl,2013-04-22 08:14:00,
2013-04-22 01:19:00,62.0,27.6,24.95,WSW,239,6.0,-999.0,27,-99.99,,,-99.99,dwt +perl,2013-04-22 08:19:00,
2013-04-22 01:24:00,62.0,27.6,24.94,WSW,238,6.0,-999.0,27,-99.99,,,-99.99,dwt +perl,2013-04-22 08:24:00,
2013-04-22 01:29:00,61.9,27.5,24.94,WSW,238,4.0,-999.0,27,-99.99,,,-99.99,dwt +perl,2013-04-22 08:29:00,
2013-04-22 01:34:00,61.7,27.4,24.94,WSW,238,5.0,-999.0,27,-99.99,,,-99.99,dwt +perl,2013-04-22 08:34:00,
2013-04-22 01:39:00,61.7,27.4,24.94,WSW,238,6.0,-999.0,27,-99.99,,,-99.99,dwt +perl,2013-04-22 08:39:00,
2013-04-22 01:44:00,61.7,27.4,24.94,WSW,238,5.0,-999.0,27,-99.99,,,-99.99,dwt +perl,2013-04-22 08:44:00,
2013-04-22 01:49:00,61.6,27.3,24.94,WSW,239,4.0,-999.0,27,-99.99,,,-99.99,dwt +perl,2013-04-22 08:49:00,
2013-04-22 01:54:00,61.5,26.3,24.94,WSW,239,2.0,-999.0,26,-99.99,,,-99.99,dwt +perl,2013-04-22 08:54:00,
2013-04-22 01:59:00,61.6,26.4,24.94,WSW,239,2.0,-999.0,26,-99.99,,,-99.99,dwt +perl,2013-04-22 08:59:00,
2013-04-22 02:04:00,61.6,25.4,24.94,WSW,239,3.0,-999.0,25,-99.99,,,-99.99,dwt +perl,2013-04-22 09:04:00,
2013-04-22 02:09:00,61.7,25.5,24.93,WSW,239,3.0,-999.0,25,-99.99,,,-99.99,dwt +perl,2013-04-22 09:09:00,
2013-04-22 02:14:00,61.6,26.4,24.93,WSW,239,3.0,-999.0,26,-99.99,,,-99.99,dwt +perl,2013-04-22 09:14:00,
2013-04-22 02:19:00,61.6,27.3,24.93,WSW,239,5.0,-999.0,27,-99.99,,,-99.99,dwt +perl,2013-04-22 09:19:00,
2013-04-22 02:24:00,61.5,27.2,24.93,WSW,239,4.0,-999.0,27,-99.99,,,-99.99,dwt +perl,2013-04-22 09:24:00,
2013-04-22 02:29:00,61.5,27.2,24.93,WSW,239,5.0,-999.0,27,-99.99,,,-99.99,dwt +perl,2013-04-22 09:29:00,
2013-04-22 02:34:00,61.4,27.1,24.93,WSW,239,6.0,-999.0,27,-99.99,,,-99.99,dwt +perl,2013-04-22 09:34:00,
2013-04-22 02:39:00,61.5,26.3,24.93,WSW,239,3.0,-999.0,26,-99.99,,,-99.99,dwt +perl,2013-04-22 09:39:00,
2013-04-22 02:44:00,61.4,26.2,24.93,WSW,239,3.0,-999.0,26,-99.99,,,-99.99,dwt +perl,2013-04-22 09:44:00,
2013-04-22 02:49:00,61.5,26.3,24.92,WSW,247,4.0,-999.0,26,-99.99,,,-99.99,dwt +perl,2013-04-22 09:49:00,
2013-04-22 02:54:00,61.6,26.4,24.92,WSW,251,4.0,-999.0,26,-99.99,,,-99.99,dwt +perl,2013-04-22 09:54:00,
2013-04-22 02:59:00,61.7,26.5,24.92,West,260,4.0,-999.0,26,-99.99,,,-99.99,dwt +perl,2013-04-22 09:59:00,
2013-04-22 03:04:00,61.6,26.4,24.92,West,262,4.0,-999.0,26,-99.99,,,-99.99,dwt +perl,2013-04-22 10:04:00,
2013-04-22 03:09:00,61.7,26.5,24.92,West,263,4.0,-999.0,26,-99.99,,,-99.99,dwt +perl,2013-04-22 10:09:00,
2013-04-22 03:14:00,61.6,26.4,24.92,West,267,4.0,-999.0,26,-99.99,,,-99.99,dwt +perl,2013-04-22 10:14:00,
2013-04-22 03:19:00,61.6,26.4,24.92,West,267,2.0,-999.0,26,-99.99,,,-99.99,dwt +perl,2013-04-22 10:19:00,
2013-04-22 03:24:00,61.6,27.3,24.92,West,271,4.0,-999.0,27,-99.99,,,-99.99,dwt +perl,2013-04-22 10:24:00,
2013-04-22 03:29:00,61.4,27.1,24.92,WNW,283,4.0,-999.0,27,-99.99,,,-99.99,dwt +perl,2013-04-22 10:29:00,
2013-04-22 03:34:00,61.2,27.0,24.91,WNW,296,3.0,-999.0,27,-99.99,,,-99.99,dwt +perl,2013-04-22 10:34:00,
2013-04-22 03:39:00,60.9,27.6,24.92,WNW,301,5.0,-999.0,28,-99.99,,,-99.99,dwt +perl,2013-04-22 10:39:00,
2013-04-22 03:44:00,60.5,28.9,24.91,NW,310,5.0,-999.0,30,-99.99,,,-99.99,dwt +perl,2013-04-22 10:44:00,
2013-04-22 03:49:00,60.0,28.5,24.91,NW,312,4.0,-999.0,30,-99.99,,,-99.99,dwt +perl,2013-04-22 10:49:00,
2013-04-22 03:54:00,59.9,29.2,24.91,NNE,20,3.0,-999.0,31,-99.99,,,-99.99,dwt +perl,2013-04-22 10:54:00,
2013-04-22 03:59:00,59.7,29.0,24.91,NNE,18,6.0,-999.0,31,-99.99,,,-99.99,dwt +perl,2013-04-22 10:59:00,
2013-04-22 04:04:00,59.8,29.1,24.91,NNE,20,3.0,-999.0,31,-99.99,,,-99.99,dwt +perl,2013-04-22 11:04:00,
2013-04-22 04:09:00,60.1,27.7,24.91,NNE,20,3.0,-999.0,29,-99.99,,,-99.99,dwt +perl,2013-04-22 11:09:00,
2013-04-22 04:14:00,60.2,28.6,24.91,NNE,20,5.0,-999.0,30,-99.99,,,-99.99,dwt +perl,2013-04-22 11:14:00,
2013-04-22 04:19:00,60.1,30.1,24.91,NNE,20,5.0,-999.0,32,-99.99,,,-99.99,dwt +perl,2013-04-22 11:19:00,
2013-04-22 04:24:00,60.0,30.1,24.91,NNE,20,1.0,-999.0,32,-99.99,,,-99.99,dwt +perl,2013-04-22 11:24:00,
2013-04-22 04:29:00,59.8,29.9,24.91,NNE,20,1.0,-999.0,32,-99.99,,,-99.99,dwt +perl,2013-04-22 11:29:00,
2013-04-22 04:34:00,59.9,29.2,24.91,NNE,20,1.0,-999.0,31,-99.99,,,-99.99,dwt +perl,2013-04-22 11:34:00,
2013-04-22 04:39:00,59.9,28.4,24.91,NNE,20,2.0,-999.0,30,-99.99,,,-99.99,dwt +perl,2013-04-22 11:39:00,
2013-04-22 04:44:00,59.8,25.8,24.91,NNE,20,2.0,-999.0,27,-99.99,,,-99.99,dwt +perl,2013-04-22 11:44:00,
2013-04-22 04:49:00,59.9,24.0,24.91,NNE,20,1.0,-999.0,25,-99.99,,,-99.99,dwt +perl,2013-04-22 11:49:00,
2013-04-22 04:54:00,59.9,23.0,24.91,NNE,20,4.0,-999.0,24,-99.99,,,-99.99,dwt +perl,2013-04-22 11:54:00,
2013-04-22 04:59:00,60.1,22.2,24.91,NNE,20,3.0,-999.0,23,-99.99,,,-99.99,dwt +perl,2013-04-22 11:59:00,
2013-04-22 05:04:00,60.3,21.3,24.91,NNE,20,4.0,-999.0,22,-99.99,,,-99.99,dwt +perl,2013-04-22 12:04:00,
2013-04-22 05:09:00,60.5,21.5,24.91,NNE,20,2.0,-999.0,22,-99.99,,,-99.99,dwt +perl,2013-04-22 12:09:00,
2013-04-22 05:14:00,60.5,20.4,24.90,NNE,20,4.0,-999.0,21,-99.99,,,-99.99,dwt +perl,2013-04-22 12:14:00,
2013-04-22 05:19:00,60.5,21.5,24.90,NNE,20,2.0,-999.0,22,-99.99,,,-99.99,dwt +perl,2013-04-22 12:19:00,
2013-04-22 05:24:00,60.2,21.2,24.90,NNE,20,3.0,-999.0,22,-99.99,,,-99.99,dwt +perl,2013-04-22 12:24:00,
2013-04-22 05:29:00,60.1,20.0,24.90,NNE,20,3.0,-999.0,21,-99.99,,,-99.99,dwt +perl,2013-04-22 12:29:00,
2013-04-22 05:34:00,60.0,21.0,24.90,NNE,20,3.0,-999.0,22,-99.99,,,-99.99,dwt +perl,2013-04-22 12:34:00,
2013-04-22 05:39:00,60.1,20.0,24.90,NNE,20,3.0,-999.0,21,-99.99,,,-99.99,dwt +perl,2013-04-22 12:39:00,
2013-04-22 05:44:00,60.0,18.8,24.90,NNE,20,3.0,-999.0,20,-99.99,,,-99.99,dwt +perl,2013-04-22 12:44:00,
2013-04-22 05:49:00,59.8,19.8,24.90,NNE,20,2.0,-999.0,21,-99.99,,,-99.99,dwt +perl,2013-04-22 12:49:00,
2013-04-22 05:54:00,59.8,19.8,24.90,NNE,21,4.0,-999.0,21,-99.99,,,-99.99,dwt +perl,2013-04-22 12:54:00,
2013-04-22 05:59:00,59.7,19.7,24.90,NNE,21,4.0,-999.0,21,-99.99,,,-99.99,dwt +perl,2013-04-22 12:59:00,
2013-04-22 06:04:00,59.7,19.7,24.90,NNE,28,5.0,-999.0,21,-99.99,,,-99.99,dwt +perl,2013-04-22 13:04:00,
2013-04-22 06:09:00,59.6,19.6,24.90,NNE,28,3.0,-999.0,21,-99.99,,,-99.99,dwt +perl,2013-04-22 13:09:00,
2013-04-22 06:14:00,59.4,20.5,24.90,NE,35,5.0,-999.0,22,-99.99,,,-99.99,dwt +perl,2013-04-22 13:14:00,
2013-04-22 06:19:00,59.4,21.6,24.90,NE,37,6.0,-999.0,23,-99.99,,,-99.99,dwt +perl,2013-04-22 13:19:00,
2013-04-22 06:24:00,59.3,22.5,24.90,NE,37,3.0,-999.0,24,-99.99,,,-99.99,dwt +perl,2013-04-22 13:24:00,
2013-04-22 06:29:00,58.7,23.9,24.90,NE,37,1.0,-999.0,26,-99.99,,,-99.99,dwt +perl,2013-04-22 13:29:00,
2013-04-22 06:34:00,58.1,28.4,24.91,NE,37,4.0,-999.0,32,-99.99,,,-99.99,dwt +perl,2013-04-22 13:34:00,
2013-04-22 06:39:00,57.8,29.6,24.91,NE,37,3.0,-999.0,34,-99.99,,,-99.99,dwt +perl,2013-04-22 13:39:00,
2013-04-22 06:44:00,57.8,29.6,24.91,East,79,3.0,-999.0,34,-99.99,,,-99.99,dwt +perl,2013-04-22 13:44:00,
2013-04-22 06:49:00,58.0,29.8,24.91,East,79,2.0,-999.0,34,-99.99,,,-99.99,dwt +perl,2013-04-22 13:49:00,
2013-04-22 06:54:00,58.2,30.0,24.91,East,79,3.0,-999.0,34,-99.99,,,-99.99,dwt +perl,2013-04-22 13:54:00,
2013-04-22 06:59:00,58.5,30.9,24.91,East,79,3.0,-999.0,35,-99.99,,,-99.99,dwt +perl,2013-04-22 13:59:00,
2013-04-22 07:04:00,58.8,29.8,24.91,ENE,76,2.0,-999.0,33,-99.99,,,-99.99,dwt +perl,2013-04-22 14:04:00,
2013-04-22 07:09:00,59.1,30.8,24.91,ENE,76,4.0,-999.0,34,-99.99,,,-99.99,dwt +perl,2013-04-22 14:09:00,
2013-04-22 07:14:00,59.5,31.1,24.91,ENE,76,3.0,-999.0,34,-99.99,,,-99.99,dwt +perl,2013-04-22 14:14:00,
2013-04-22 07:19:00,59.9,31.5,24.91,ENE,76,2.0,-999.0,34,-99.99,,,-99.99,dwt +perl,2013-04-22 14:19:00,
2013-04-22 07:24:00,60.2,32.4,24.92,ENE,75,2.0,-999.0,35,-99.99,,,-99.99,dwt +perl,2013-04-22 14:24:00,
2013-04-22 07:29:00,60.7,30.7,24.92,ENE,75,3.0,-999.0,32,-99.99,,,-99.99,dwt +perl,2013-04-22 14:29:00,
2013-04-22 07:34:00,61.0,31.7,24.92,ENE,76,2.0,-999.0,33,-99.99,,,-99.99,dwt +perl,2013-04-22 14:34:00,
2013-04-22 07:39:00,61.4,32.8,24.92,ENE,76,3.0,-999.0,34,-99.99,,,-99.99,dwt +perl,2013-04-22 14:39:00,
2013-04-22 07:44:00,61.6,33.0,24.92,ENE,64,3.0,-999.0,34,-99.99,,,-99.99,dwt +perl,2013-04-22 14:44:00,
2013-04-22 07:49:00,61.7,33.0,24.92,ENE,64,7.0,-999.0,34,-99.99,,,-99.99,dwt +perl,2013-04-22 14:49:00,
2013-04-22 07:54:00,61.7,32.3,24.92,ENE,64,3.0,-999.0,33,-99.99,,,-99.99,dwt +perl,2013-04-22 14:54:00,
2013-04-22 07:59:00,61.5,32.9,24.92,ENE,64,2.0,-999.0,34,-99.99,,,-99.99,dwt +perl,2013-04-22 14:59:00,
2013-04-22 08:04:00,61.5,32.9,24.92,ENE,58,3.0,-999.0,34,-99.99,,,-99.99,dwt +perl,2013-04-22 15:04:00,
2013-04-22 08:09:00,61.7,33.0,24.92,ENE,61,5.0,-999.0,34,-99.99,,,-99.99,dwt +perl,2013-04-22 15:09:00,
2013-04-22 08:14:00,61.7,31.5,24.92,ENE,75,4.0,-999.0,32,-99.99,,,-99.99,dwt +perl,2013-04-22 15:14:00,
2013-04-22 08:19:00,61.7,33.0,24.93,NE,55,3.0,-999.0,34,-99.99,,,-99.99,dwt +perl,2013-04-22 15:19:00,
2013-04-22 08:24:00,61.7,31.5,24.92,NE,52,3.0,-999.0,32,-99.99,,,-99.99,dwt +perl,2013-04-22 15:24:00,
2013-04-22 08:29:00,62.0,31.8,24.93,NE,49,3.0,-999.0,32,-99.99,,,-99.99,dwt +perl,2013-04-22 15:29:00,
2013-04-22 08:34:00,62.0,31.8,24.92,NE,49,4.0,-999.0,32,-99.99,,,-99.99,dwt +perl,2013-04-22 15:34:00,
2013-04-22 08:39:00,62.0,32.6,24.93,NE,54,4.0,-999.0,33,-99.99,,,-99.99,dwt +perl,2013-04-22 15:39:00,
2013-04-22 08:44:00,62.1,32.7,24.92,NE,51,4.0,-999.0,33,-99.99,,,-99.99,dwt +perl,2013-04-22 15:44:00,
2013-04-22 08:49:00,62.3,31.3,24.92,ENE,68,3.0,-999.0,31,-99.99,,,-99.99,dwt +perl,2013-04-22 15:49:00,
2013-04-22 08:54:00,62.4,32.2,24.92,NE,54,4.0,-999.0,32,-99.99,,,-99.99,dwt +perl,2013-04-22 15:54:00,
2013-04-22 08:59:00,62.8,31.7,24.92,NE,52,4.0,-999.0,31,-99.99,,,-99.99,dwt +perl,2013-04-22 15:59:00,
2013-04-22 09:04:00,63.1,32.8,24.92,NE,54,3.0,-999.0,32,-99.99,,,-99.99,dwt +perl,2013-04-22 16:04:00,
2013-04-22 09:09:00,63.3,34.5,24.92,ENE,62,3.0,-999.0,34,-99.99,,,-99.99,dwt +perl,2013-04-22 16:09:00,
2013-04-22 09:14:00,63.5,33.1,24.92,ENE,68,4.0,-999.0,32,-99.99,,,-99.99,dwt +perl,2013-04-22 16:14:00,
2013-04-22 09:19:00,63.5,33.1,24.92,NE,54,4.0,-999.0,32,-99.99,,,-99.99,dwt +perl,2013-04-22 16:19:00,
2013-04-22 09:24:00,63.9,34.2,24.92,NE,43,3.0,-999.0,33,-99.99,,,-99.99,dwt +perl,2013-04-22 16:24:00,
2013-04-22 09:29:00,64.3,33.8,24.92,NE,53,5.0,-999.0,32,-99.99,,,-99.99,dwt +perl,2013-04-22 16:29:00,
2013-04-22 09:34:00,64.3,33.8,24.92,NE,51,5.0,-999.0,32,-99.99,,,-99.99,dwt +perl,2013-04-22 16:34:00,
2013-04-22 09:39:00,64.4,31.5,24.92,NE,48,3.0,-999.0,29,-99.99,,,-99.99,dwt +perl,2013-04-22 16:39:00,
2013-04-22 09:44:00,64.6,31.6,24.92,NE,37,3.0,-999.0,29,-99.99,,,-99.99,dwt +perl,2013-04-22 16:44:00,
2013-04-22 09:49:00,64.9,32.7,24.92,NE,51,3.0,-999.0,30,-99.99,,,-99.99,dwt +perl,2013-04-22 16:49:00,
2013-04-22 09:54:00,65.2,30.4,24.92,East,88,7.0,-999.0,27,-99.99,,,-99.99,dwt +perl,2013-04-22 16:54:00,
2013-04-22 09:59:00,64.6,32.5,24.93,ENE,62,4.0,-999.0,30,-99.99,,,-99.99,dwt +perl,2013-04-22 16:59:00,
2013-04-22 10:04:00,64.9,33.5,24.93,NE,48,3.0,-999.0,31,-99.99,,,-99.99,dwt +perl,2013-04-22 17:04:00,
2013-04-22 10:09:00,65.4,33.2,24.93,NE,39,2.0,-999.0,30,-99.99,,,-99.99,dwt +perl,2013-04-22 17:09:00,
2013-04-22 10:14:00,66.1,33.8,24.93,NE,46,1.0,-999.0,30,-99.99,,,-99.99,dwt +perl,2013-04-22 17:14:00,
2013-04-22 10:19:00,66.5,33.3,24.93,East,81,1.0,-999.0,29,-99.99,,,-99.99,dwt +perl,2013-04-22 17:19:00,
2013-04-22 10:24:00,66.8,32.6,24.93,NE,56,2.0,-999.0,28,-99.99,,,-99.99,dwt +perl,2013-04-22 17:24:00,
2013-04-22 10:29:00,66.9,34.5,24.93,NE,52,3.0,-999.0,30,-99.99,,,-99.99,dwt +perl,2013-04-22 17:29:00,
2013-04-22 10:34:00,67.5,33.2,24.93,NE,52,3.0,-999.0,28,-99.99,,,-99.99,dwt +perl,2013-04-22 17:34:00,
2013-04-22 10:39:00,67.6,33.3,24.93,NE,45,4.0,-999.0,28,-99.99,,,-99.99,dwt +perl,2013-04-22 17:39:00,
2013-04-22 10:44:00,67.4,34.0,24.93,NE,45,2.0,-999.0,29,-99.99,,,-99.99,dwt +perl,2013-04-22 17:44:00,
2013-04-22 10:49:00,67.8,35.2,24.93,NE,40,1.0,-999.0,30,-99.99,,,-99.99,dwt +perl,2013-04-22 17:49:00,
2013-04-22 10:54:00,68.3,35.7,24.93,NE,38,5.0,-999.0,30,-99.99,,,-99.99,dwt +perl,2013-04-22 17:54:00,
2013-04-22 10:59:00,67.9,30.8,24.93,ENE,58,2.0,-999.0,25,-99.99,,,-99.99,dwt +perl,2013-04-22 17:59:00,
2013-04-22 11:04:00,67.0,31.0,24.93,NE,35,4.0,-999.0,26,-99.99,,,-99.99,dwt +perl,2013-04-22 18:04:00,
2013-04-22 11:09:00,66.4,31.4,24.93,ENE,77,3.0,-999.0,27,-99.99,,,-99.99,dwt +perl,2013-04-22 18:09:00,
2013-04-22 11:14:00,66.7,30.7,24.93,NNW,343,4.0,-999.0,26,-99.99,,,-99.99,dwt +perl,2013-04-22 18:14:00,
2013-04-22 11:19:00,65.2,30.4,24.93,NNW,339,2.0,-999.0,27,-99.99,,,-99.99,dwt +perl,2013-04-22 18:19:00,
2013-04-22 11:24:00,65.7,33.4,24.93,NNE,28,4.0,-999.0,30,-99.99,,,-99.99,dwt +perl,2013-04-22 18:24:00,
2013-04-22 11:29:00,66.8,31.7,24.93,NNE,18,2.0,-999.0,27,-99.99,,,-99.99,dwt +perl,2013-04-22 18:29:00,
2013-04-22 11:34:00,66.6,32.5,24.93,ENE,66,1.0,-999.0,28,-99.99,,,-99.99,dwt +perl,2013-04-22 18:34:00,
2013-04-22 11:39:00,67.4,31.3,24.93,NE,49,1.0,-999.0,26,-99.99,,,-99.99,dwt +perl,2013-04-22 18:39:00,
2013-04-22 11:44:00,68.1,33.8,24.93,ENE,77,1.0,-999.0,28,-99.99,,,-99.99,dwt +perl,2013-04-22 18:44:00,
2013-04-22 11:49:00,68.8,33.5,24.93,NNE,27,3.0,-999.0,27,-99.99,,,-99.99,dwt +perl,2013-04-22 18:49:00,
2013-04-22 11:54:00,68.5,33.2,24.93,NE,43,2.0,-999.0,27,-99.99,,,-99.99,dwt +perl,2013-04-22 18:54:00,
2013-04-22 11:59:00,68.6,32.3,24.93,NE,52,5.0,-999.0,26,-99.99,,,-99.99,dwt +perl,2013-04-22 18:59:00,
2013-04-22 12:04:00,67.9,29.8,24.93,NE,51,3.0,-999.0,24,-99.99,,,-99.99,dwt +perl,2013-04-22 19:04:00,
2013-04-22 12:09:00,67.4,32.2,24.93,NE,41,5.0,-999.0,27,-99.99,,,-99.99,dwt +perl,2013-04-22 19:09:00,
2013-04-22 12:14:00,67.0,31.9,24.93,North,359,1.0,-999.0,27,-99.99,,,-99.99,dwt +perl,2013-04-22 19:14:00,
2013-04-22 12:19:00,68.1,31.0,24.92,NE,35,4.0,-999.0,25,-99.99,,,-99.99,dwt +perl,2013-04-22 19:19:00,
2013-04-22 12:29:00,68.8,32.5,24.92,NE,52,3.0,-999.0,26,-99.99,,,-99.99,dwt +perl,2013-04-22 19:29:00,
2013-04-22 12:34:00,69.1,33.7,24.92,NNE,29,4.0,-999.0,27,-99.99,,,-99.99,dwt +perl,2013-04-22 19:34:00,
2013-04-22 12:39:00,68.1,33.8,24.92,NNE,18,3.0,-999.0,28,-99.99,,,-99.99,dwt +perl,2013-04-22 19:39:00,
2013-04-22 12:44:00,68.8,32.5,24.92,NE,52,3.0,-999.0,26,-99.99,,,-99.99,dwt +perl,2013-04-22 19:44:00,
2013-04-22 12:49:00,69.4,32.0,24.92,NE,42,0.0,-999.0,25,-99.99,,,-99.99,dwt +perl,2013-04-22 19:49:00,
2013-04-22 12:54:00,68.8,34.4,24.92,NNE,18,4.0,-999.0,28,-99.99,,,-99.99,dwt +perl,2013-04-22 19:54:00,
2013-04-22 12:59:00,69.3,34.8,24.92,NNE,30,0.0,-999.0,28,-99.99,,,-99.99,dwt +perl,2013-04-22 19:59:00,
2013-04-22 13:04:00,69.9,34.4,24.92,NNE,31,1.0,-999.0,27,-99.99,,,-99.99,dwt +perl,2013-04-22 20:04:00,
2013-04-22 13:09:00,70.6,33.1,24.91,NE,41,3.0,-999.0,25,-99.99,,,-99.99,dwt +perl,2013-04-22 20:09:00,
2013-04-22 13:14:00,70.4,33.9,24.91,NE,55,2.0,-999.0,26,-99.99,,,-99.99,dwt +perl,2013-04-22 20:14:00,
2013-04-22 13:19:00,69.7,36.0,24.91,NE,36,1.0,-999.0,29,-99.99,,,-99.99,dwt +perl,2013-04-22 20:19:00,
2013-04-22 13:24:00,70.0,35.4,24.91,NE,47,1.0,-999.0,28,-99.99,,,-99.99,dwt +perl,2013-04-22 20:24:00,
2013-04-22 13:29:00,69.8,36.1,24.91,NNE,27,0.0,-999.0,29,-99.99,,,-99.99,dwt +perl,2013-04-22 20:29:00,
2013-04-22 13:34:00,69.8,37.8,24.91,ENE,73,2.0,-999.0,31,-99.99,,,-99.99,dwt +perl,2013-04-22 20:34:00,
2013-04-22 13:39:00,70.0,36.3,24.91,NNE,33,3.0,-999.0,29,-99.99,,,-99.99,dwt +perl,2013-04-22 20:39:00,
2013-04-22 13:44:00,69.1,37.2,24.91,NW,320,2.0,-999.0,31,-99.99,,,-99.99,dwt +perl,2013-04-22 20:44:00,
2013-04-22 13:49:00,68.2,34.7,24.91,North,10,5.0,-999.0,29,-99.99,,,-99.99,dwt +perl,2013-04-22 20:49:00,
2013-04-22 13:54:00,68.1,36.3,24.91,NNE,17,1.0,-999.0,31,-99.99,,,-99.99,dwt +perl,2013-04-22 20:54:00,
2013-04-22 13:59:00,68.4,36.6,24.91,NNE,26,4.0,-999.0,31,-99.99,,,-99.99,dwt +perl,2013-04-22 20:59:00,
2013-04-22 14:04:00,69.0,37.1,24.91,NNE,25,3.0,-999.0,31,-99.99,,,-99.99,dwt +perl,2013-04-22 21:04:00,
2013-04-22 14:09:00,68.4,35.8,24.90,NNE,25,1.0,-999.0,30,-99.99,,,-99.99,dwt +perl,2013-04-22 21:09:00,
2013-04-22 14:14:00,68.1,37.1,24.90,NE,41,10.0,-999.0,32,-99.99,,,-99.99,dwt +perl,2013-04-22 21:14:00,
2013-04-22 14:19:00,67.9,37.7,24.90,WNW,301,7.0,-999.0,33,-99.99,,,-99.99,dwt +perl,2013-04-22 21:19:00,
2013-04-22 14:24:00,66.7,38.2,24.90,NW,318,7.0,-999.0,35,-99.99,,,-99.99,dwt +perl,2013-04-22 21:24:00,
2013-04-22 14:29:00,67.0,37.7,24.90,NE,37,4.0,-999.0,34,-99.99,,,-99.99,dwt +perl,2013-04-22 21:29:00,
2013-04-22 14:34:00,67.1,37.8,24.90,NNW,343,5.0,-999.0,34,-99.99,,,-99.99,dwt +perl,2013-04-22 21:34:00,
2013-04-22 14:39:00,66.8,37.5,24.90,North,354,3.0,-999.0,34,-99.99,,,-99.99,dwt +perl,2013-04-22 21:39:00,
2013-04-22 14:44:00,66.6,39.5,24.90,NW,312,4.0,-999.0,37,-99.99,,,-99.99,dwt +perl,2013-04-22 21:44:00,
2013-04-22 14:49:00,66.1,36.9,24.90,NNE,32,6.0,-999.0,34,-99.99,,,-99.99,dwt +perl,2013-04-22 21:49:00,
2013-04-22 14:54:00,65.4,38.4,24.90,NE,48,5.0,-999.0,37,-99.99,,,-99.99,dwt +perl,2013-04-22 21:54:00,
2013-04-22 14:59:00,66.5,38.7,24.89,NNE,17,7.0,-999.0,36,-99.99,,,-99.99,dwt +perl,2013-04-22 21:59:00,
2013-04-22 15:04:00,66.8,38.3,24.89,NNW,348,3.0,-999.0,35,-99.99,,,-99.99,dwt +perl,2013-04-22 22:04:00,
2013-04-22 15:09:00,66.7,38.2,24.89,NNW,331,4.0,-999.0,35,-99.99,,,-99.99,dwt +perl,2013-04-22 22:09:00,
2013-04-22 15:14:00,66.0,38.3,24.89,NW,320,9.0,-999.0,36,-99.99,,,-99.99,dwt +perl,2013-04-22 22:14:00,
2013-04-22 15:19:00,65.5,37.1,24.89,North,359,4.0,-999.0,35,-99.99,,,-99.99,dwt +perl,2013-04-22 22:19:00,
2013-04-22 15:24:00,65.3,37.7,24.88,NNW,340,6.0,-999.0,36,-99.99,,,-99.99,dwt +perl,2013-04-22 22:24:00,
2013-04-22 15:29:00,64.9,37.3,24.88,NNE,22,5.0,-999.0,36,-99.99,,,-99.99,dwt +perl,2013-04-22 22:29:00,
2013-04-22 15:34:00,65.5,37.8,24.88,NNW,341,5.0,-999.0,36,-99.99,,,-99.99,dwt +perl,2013-04-22 22:34:00,
2013-04-22 15:39:00,65.7,38.0,24.88,NW,322,5.0,-999.0,36,-99.99,,,-99.99,dwt +perl,2013-04-22 22:39:00,
2013-04-22 15:44:00,65.8,35.9,24.88,NNE,20,4.0,-999.0,33,-99.99,,,-99.99,dwt +perl,2013-04-22 22:44:00,
2013-04-22 15:49:00,65.8,36.6,24.88,NNE,31,6.0,-999.0,34,-99.99,,,-99.99,dwt +perl,2013-04-22 22:49:00,
2013-04-22 15:54:00,65.9,36.7,24.88,NW,315,5.0,-999.0,34,-99.99,,,-99.99,dwt +perl,2013-04-22 22:54:00,
2013-04-22 15:59:00,65.8,35.9,24.88,NW,325,11.0,-999.0,33,-99.99,,,-99.99,dwt +perl,2013-04-22 22:59:00,
2013-04-22 16:04:00,65.1,34.5,24.87,NW,323,4.0,-999.0,32,-99.99,,,-99.99,dwt +perl,2013-04-22 23:04:00,
2013-04-22 16:09:00,65.4,35.5,24.87,North,10,3.0,-999.0,33,-99.99,,,-99.99,dwt +perl,2013-04-22 23:09:00,
2013-04-22 16:14:00,65.7,35.8,24.87,WNW,297,6.0,-999.0,33,-99.99,,,-99.99,dwt +perl,2013-04-22 23:14:00,
2013-04-22 16:19:00,65.6,34.9,24.87,North,8,4.0,-999.0,32,-99.99,,,-99.99,dwt +perl,2013-04-22 23:19:00,
2013-04-22 16:24:00,64.9,34.3,24.87,NNW,331,6.0,-999.0,32,-99.99,,,-99.99,dwt +perl,2013-04-22 23:24:00,
2013-04-22 16:29:00,64.9,35.8,24.87,NNW,335,5.0,-999.0,34,-99.99,,,-99.99,dwt +perl,2013-04-22 23:29:00,
2013-04-22 16:34:00,64.4,35.4,24.86,North,354,5.0,-999.0,34,-99.99,,,-99.99,dwt +perl,2013-04-22 23:34:00,
2013-04-22 16:39:00,63.9,34.2,24.86,NW,309,7.0,-999.0,33,-99.99,,,-99.99,dwt +perl,2013-04-22 23:39:00,
2013-04-22 16:44:00,63.9,35.0,24.86,NW,316,10.0,-999.0,34,-99.99,,,-99.99,dwt +perl,2013-04-22 23:44:00,
2013-04-22 16:49:00,63.9,34.2,24.86,NNW,334,10.0,-999.0,33,-99.99,,,-99.99,dwt +perl,2013-04-22 23:49:00,
2013-04-22 16:54:00,63.6,36.2,24.86,NNE,21,5.0,-999.0,36,-99.99,,,-99.99,dwt +perl,2013-04-22 23:54:00,
2013-04-22 16:59:00,63.4,34.5,24.86,NW,314,12.0,-999.0,34,-99.99,,,-99.99,dwt +perl,2013-04-22 23:59:00,
2013-04-22 17:04:00,63.7,36.2,24.86,NNW,343,2.0,-999.0,36,-99.99,,,-99.99,dwt +perl,2013-04-23 00:04:00,
2013-04-22 17:09:00,63.9,37.1,24.86,NNE,23,1.0,-999.0,37,-99.99,,,-99.99,dwt +perl,2013-04-23 00:09:00,
2013-04-22 17:14:00,64.0,35.8,24.86,NW,318,8.0,-999.0,35,-99.99,,,-99.99,dwt +perl,2013-04-23 00:14:00,
2013-04-22 17:19:00,64.3,36.1,24.86,NW,310,6.0,-999.0,35,-99.99,,,-99.99,dwt +perl,2013-04-23 00:19:00,
2013-04-22 17:24:00,64.6,36.3,24.86,NW,313,7.0,-999.0,35,-99.99,,,-99.99,dwt +perl,2013-04-23 00:24:00,
2013-04-22 17:29:00,65.0,37.4,24.86,SW,228,10.0,-999.0,36,-99.99,,,-99.99,dwt +perl,2013-04-23 00:29:00,
2013-04-22 17:34:00,64.9,38.0,24.86,NW,314,4.0,-999.0,37,-99.99,,,-99.99,dwt +perl,2013-04-23 00:34:00,
2013-04-22 17:39:00,65.0,38.1,24.86,NW,318,10.0,-999.0,37,-99.99,,,-99.99,dwt +perl,2013-04-23 00:39:00,
2013-04-22 17:44:00,64.2,37.4,24.86,NNW,335,10.0,-999.0,37,-99.99,,,-99.99,dwt +perl,2013-04-23 00:44:00,
2013-04-22 17:49:00,63.8,37.0,24.86,NNW,328,9.0,-999.0,37,-99.99,,,-99.99,dwt +perl,2013-04-23 00:49:00,
2013-04-22 17:54:00,63.5,37.4,24.86,NW,321,9.0,-999.0,38,-99.99,,,-99.99,dwt +perl,2013-04-23 00:54:00,
2013-04-22 17:59:00,63.4,38.0,24.86,NW,306,6.0,-999.0,39,-99.99,,,-99.99,dwt +perl,2013-04-23 00:59:00,
2013-04-22 18:04:00,63.9,37.1,24.87,WSW,256,7.0,-999.0,37,-99.99,,,-99.99,dwt +perl,2013-04-23 01:04:00,
2013-04-22 18:09:00,63.3,35.9,24.86,WNW,285,4.0,-999.0,36,-99.99,,,-99.99,dwt +perl,2013-04-23 01:09:00,
2013-04-22 18:14:00,63.4,36.7,24.86,WSW,241,5.0,-999.0,37,-99.99,,,-99.99,dwt +perl,2013-04-23 01:14:00,
2013-04-22 18:19:00,63.8,36.3,24.86,West,261,3.0,-999.0,36,-99.99,,,-99.99,dwt +perl,2013-04-23 01:19:00,
2013-04-22 18:24:00,63.0,34.9,24.86,WNW,287,6.0,-999.0,35,-99.99,,,-99.99,dwt +perl,2013-04-23 01:24:00,
2013-04-22 18:29:00,62.8,34.7,24.86,West,275,4.0,-999.0,35,-99.99,,,-99.99,dwt +perl,2013-04-23 01:29:00,
2013-04-22 18:34:00,63.0,35.6,24.86,WNW,295,6.0,-999.0,36,-99.99,,,-99.99,dwt +perl,2013-04-23 01:34:00,
2013-04-22 18:39:00,62.8,36.1,24.86,NW,317,9.0,-999.0,37,-99.99,,,-99.99,dwt +perl,2013-04-23 01:39:00,
2013-04-22 18:44:00,62.6,36.0,24.86,WSW,237,3.0,-999.0,37,-99.99,,,-99.99,dwt +perl,2013-04-23 01:44:00,
2013-04-22 18:49:00,62.2,34.9,24.86,NW,313,5.0,-999.0,36,-99.99,,,-99.99,dwt +perl,2013-04-23 01:49:00,
2013-04-22 18:54:00,62.0,33.3,24.86,WNW,292,3.0,-999.0,34,-99.99,,,-99.99,dwt +perl,2013-04-23 01:54:00,
2013-04-22 18:59:00,61.8,31.6,24.86,NNW,336,1.0,-999.0,32,-99.99,,,-99.99,dwt +perl,2013-04-23 01:59:00,
2013-04-22 19:04:00,61.8,33.1,24.86,NW,309,7.0,-999.0,34,-99.99,,,-99.99,dwt +perl,2013-04-23 02:04:00,
2013-04-22 19:09:00,61.7,30.0,24.86,WNW,295,1.0,-999.0,30,-99.99,,,-99.99,dwt +perl,2013-04-23 02:09:00,
2013-04-22 19:14:00,61.6,28.2,24.86,NW,308,4.0,-999.0,28,-99.99,,,-99.99,dwt +perl,2013-04-23 02:14:00,
2013-04-22 19:19:00,61.4,29.7,24.86,West,280,6.0,-999.0,30,-99.99,,,-99.99,dwt +perl,2013-04-23 02:19:00,
2013-04-22 19:24:00,61.1,32.5,24.86,WNW,283,1.0,-999.0,34,-99.99,,,-99.99,dwt +perl,2013-04-23 02:24:00,
2013-04-22 19:29:00,60.3,35.9,24.86,North,4,5.0,-999.0,40,-99.99,,,-99.99,dwt +perl,2013-04-23 02:29:00,
2013-04-22 19:34:00,60.0,31.5,24.86,West,274,4.0,-999.0,34,-99.99,,,-99.99,dwt +perl,2013-04-23 02:34:00,
2013-04-22 19:39:00,59.6,27.3,24.86,NW,308,6.0,-999.0,29,-99.99,,,-99.99,dwt +perl,2013-04-23 02:39:00,
2013-04-22 19:44:00,59.5,27.2,24.86,West,274,5.0,-999.0,29,-99.99,,,-99.99,dwt +perl,2013-04-23 02:44:00,
2013-04-22 19:49:00,59.4,26.3,24.86,NW,310,7.0,-999.0,28,-99.99,,,-99.99,dwt +perl,2013-04-23 02:49:00,
2013-04-22 19:54:00,59.3,23.5,24.86,NW,319,10.0,-999.0,25,-99.99,,,-99.99,dwt +perl,2013-04-23 02:54:00,
2013-04-22 19:59:00,59.3,26.2,24.86,NNW,329,10.0,-999.0,28,-99.99,,,-99.99,dwt +perl,2013-04-23 02:59:00,
2013-04-22 20:04:00,59.3,26.2,24.86,NW,325,9.0,-999.0,28,-99.99,,,-99.99,dwt +perl,2013-04-23 03:04:00,
2013-04-22 20:09:00,59.2,27.0,24.87,NW,316,8.0,-999.0,29,-99.99,,,-99.99,dwt +perl,2013-04-23 03:09:00,
2013-04-22 20:14:00,59.2,27.8,24.87,NNW,332,8.0,-999.0,30,-99.99,,,-99.99,dwt +perl,2013-04-23 03:14:00,
2013-04-22 20:19:00,59.3,26.2,24.87,NW,322,11.0,-999.0,28,-99.99,,,-99.99,dwt +perl,2013-04-23 03:19:00,
2013-04-22 20:24:00,59.4,26.3,24.87,NW,312,7.0,-999.0,28,-99.99,,,-99.99,dwt +perl,2013-04-23 03:24:00,
2013-04-22 20:29:00,59.4,27.1,24.87,NNW,341,10.0,-999.0,29,-99.99,,,-99.99,dwt +perl,2013-04-23 03:29:00,
2013-04-22 20:34:00,59.4,28.0,24.87,NNW,341,9.0,-999.0,30,-99.99,,,-99.99,dwt +perl,2013-04-23 03:34:00,
2013-04-22 20:39:00,59.4,28.0,24.87,North,4,10.0,-999.0,30,-99.99,,,-99.99,dwt +perl,2013-04-23 03:39:00,
2013-04-22 20:44:00,59.2,27.8,24.87,North,354,9.0,-999.0,30,-99.99,,,-99.99,dwt +perl,2013-04-23 03:44:00,
2013-04-22 20:49:00,58.9,27.5,24.87,NNW,341,7.0,-999.0,30,-99.99,,,-99.99,dwt +perl,2013-04-23 03:49:00,
2013-04-22 20:54:00,58.8,28.2,24.87,North,350,4.0,-999.0,31,-99.99,,,-99.99,dwt +perl,2013-04-23 03:54:00,
2013-04-22 20:59:00,58.7,28.1,24.87,NNE,18,6.0,-999.0,31,-99.99,,,-99.99,dwt +perl,2013-04-23 03:59:00,
2013-04-22 21:04:00,58.7,28.1,24.87,North,359,6.0,-999.0,31,-99.99,,,-99.99,dwt +perl,2013-04-23 04:04:00,
2013-04-22 21:09:00,58.6,26.4,24.88,NNW,344,7.0,-999.0,29,-99.99,,,-99.99,dwt +perl,2013-04-23 04:09:00,
2013-04-22 21:14:00,58.6,27.3,24.88,North,349,8.0,-999.0,30,-99.99,,,-99.99,dwt +perl,2013-04-23 04:14:00,
2013-04-22 21:19:00,58.6,28.1,24.88,NNW,332,4.0,-999.0,31,-99.99,,,-99.99,dwt +perl,2013-04-23 04:19:00,
2013-04-22 21:24:00,58.5,30.9,24.88,NNW,334,7.0,-999.0,35,-99.99,,,-99.99,dwt +perl,2013-04-23 04:24:00,
2013-04-22 21:29:00,58.4,31.5,24.88,NW,320,7.0,-999.0,36,-99.99,,,-99.99,dwt +perl,2013-04-23 04:29:00,
2013-04-22 21:34:00,58.2,29.2,24.88,North,359,7.0,-999.0,33,-99.99,,,-99.99,dwt +perl,2013-04-23 04:34:00,
2013-04-22 21:39:00,58.3,27.8,24.88,NE,39,8.0,-999.0,31,-99.99,,,-99.99,dwt +perl,2013-04-23 04:39:00,
2013-04-22 21:44:00,58.5,28.8,24.88,NNE,12,8.0,-999.0,32,-99.99,,,-99.99,dwt +perl,2013-04-23 04:44:00,
2013-04-22 21:49:00,58.5,30.2,24.88,NNE,27,10.0,-999.0,34,-99.99,,,-99.99,dwt +perl,2013-04-23 04:49:00,
2013-04-22 21:54:00,58.4,31.5,24.88,North,8,10.0,-999.0,36,-99.99,,,-99.99,dwt +perl,2013-04-23 04:54:00,
2013-04-22 21:59:00,58.3,31.5,24.88,NNE,26,14.0,-999.0,36,-99.99,,,-99.99,dwt +perl,2013-04-23 04:59:00,
2013-04-22 22:04:00,58.3,31.5,24.88,NNE,31,10.0,-999.0,36,-99.99,,,-99.99,dwt +perl,2013-04-23 05:04:00,
2013-04-22 22:09:00,58.2,31.4,24.88,NE,34,11.0,-999.0,36,-99.99,,,-99.99,dwt +perl,2013-04-23 05:09:00,
2013-04-22 22:14:00,57.9,31.8,24.88,NE,34,14.0,-999.0,37,-99.99,,,-99.99,dwt +perl,2013-04-23 05:14:00,
2013-04-22 22:19:00,57.6,32.2,24.88,NNE,29,11.0,-999.0,38,-99.99,,,-99.99,dwt +perl,2013-04-23 05:19:00,
2013-04-22 22:24:00,57.3,31.9,24.88,NNE,28,13.0,-999.0,38,-99.99,,,-99.99,dwt +perl,2013-04-23 05:24:00,
2013-04-22 22:29:00,57.3,31.9,24.87,NNE,14,11.0,-999.0,38,-99.99,,,-99.99,dwt +perl,2013-04-23 05:29:00,
2013-04-22 22:34:00,57.4,32.0,24.87,NNE,21,11.0,-999.0,38,-99.99,,,-99.99,dwt +perl,2013-04-23 05:34:00,
2013-04-22 22:39:00,57.2,31.8,24.87,NE,46,10.0,-999.0,38,-99.99,,,-99.99,dwt +perl,2013-04-23 05:39:00,
2013-04-22 22:44:00,56.9,31.6,24.87,NNE,32,8.0,-999.0,38,-99.99,,,-99.99,dwt +perl,2013-04-23 05:44:00,
2013-04-22 22:49:00,56.8,31.5,24.87,NNE,31,7.0,-999.0,38,-99.99,,,-99.99,dwt +perl,2013-04-23 05:49:00,
2013-04-22 22:54:00,56.9,28.8,24.87,NE,47,10.0,-999.0,34,-99.99,,,-99.99,dwt +perl,2013-04-23 05:54:00,
2013-04-22 22:59:00,57.4,28.5,24.87,NE,37,10.0,-999.0,33,-99.99,,,-99.99,dwt +perl,2013-04-23 05:59:00,
2013-04-22 23:04:00,57.7,28.0,24.87,NE,41,9.0,-999.0,32,-99.99,,,-99.99,dwt +perl,2013-04-23 06:04:00,
2013-04-22 23:09:00,57.7,28.8,24.87,NE,41,7.0,-999.0,33,-99.99,,,-99.99,dwt +perl,2013-04-23 06:09:00,
2013-04-22 23:14:00,57.7,28.8,24.87,NE,39,7.0,-999.0,33,-99.99,,,-99.99,dwt +perl,2013-04-23 06:14:00,
2013-04-22 23:19:00,57.7,28.8,24.87,NNE,29,7.0,-999.0,33,-99.99,,,-99.99,dwt +perl,2013-04-23 06:19:00,
2013-04-22 23:24:00,57.6,28.0,24.87,NE,48,9.0,-999.0,32,-99.99,,,-99.99,dwt +perl,2013-04-23 06:24:00,
2013-04-22 23:29:00,57.6,27.2,24.87,NE,41,9.0,-999.0,31,-99.99,,,-99.99,dwt +perl,2013-04-23 06:29:00,
2013-04-22 23:34:00,57.6,26.4,24.87,NNE,32,7.0,-999.0,30,-99.99,,,-99.99,dwt +perl,2013-04-23 06:34:00,
2013-04-22 23:39:00,57.6,25.6,24.87,NE,43,9.0,-999.0,29,-99.99,,,-99.99,dwt +perl,2013-04-23 06:39:00,
2013-04-22 23:44:00,57.7,24.0,24.87,NE,41,6.0,-999.0,27,-99.99,,,-99.99,dwt +perl,2013-04-23 06:44:00,
2013-04-22 23:49:00,57.9,24.1,24.87,NE,42,6.0,-999.0,27,-99.99,,,-99.99,dwt +perl,2013-04-23 06:49:00,
2013-04-22 23:54:00,58.0,24.2,24.87,NE,37,7.0,-999.0,27,-99.99,,,-99.99,dwt +perl,2013-04-23 06:54:00,
2013-04-22 23:59:00,57.6,25.6,24.87,NNE,29,9.0,-999.0,29,-99.99,,,-99.99,dwt +perl,2013-04-23 06:59:00,